createdAt,value
2018-01-30T00:02:06.083Z,99.90
2018-01-30T00:04:33.680Z,99.90
2018-01-30T00:07:02.801Z,99.90
2018-01-30T00:09:31.169Z,99.90
2018-01-30T00:11:58.773Z,99.90
2018-01-30T00:14:26.408Z,99.40
2018-01-30T00:16:54.007Z,98.50
2018-01-30T00:19:22.377Z,97.30
2018-01-30T00:21:50.056Z,97.20
2018-01-30T00:24:17.649Z,97.90
2018-01-30T00:26:46.018Z,97.30
2018-01-30T00:29:13.661Z,97.40
2018-01-30T00:31:41.262Z,96.90
2018-01-30T00:34:08.906Z,96.10
2018-01-30T00:36:36.581Z,95.90
2018-01-30T00:39:04.185Z,94.40
2018-01-30T00:41:31.789Z,92.40
2018-01-30T00:43:59.427Z,92.50
2018-01-30T00:46:27.034Z,92.10
2018-01-30T00:48:55.401Z,91.90
2018-01-30T00:51:23.037Z,91.80
2018-01-30T00:53:50.637Z,90.40
2018-01-30T00:56:18.236Z,91.50
2018-01-30T00:58:46.636Z,92.30
2018-01-30T01:01:15.009Z,92.60
2018-01-30T01:03:42.617Z,92.50
2018-01-30T01:06:10.319Z,92.30
2018-01-30T01:08:37.922Z,91.30
2018-01-30T01:11:05.569Z,91.30
2018-01-30T01:13:33.204Z,90.00
2018-01-30T01:16:00.917Z,88.50
2018-01-30T01:18:28.517Z,88.00
2018-01-30T01:20:56.163Z,88.40
2018-01-30T01:23:23.769Z,88.50
2018-01-30T01:25:51.373Z,85.40
2018-01-30T01:28:19.024Z,83.80
2018-01-30T01:30:46.654Z,81.50
2018-01-30T01:33:14.336Z,78.40
2018-01-30T01:35:41.972Z,79.60
2018-01-30T01:38:09.578Z,79.40
2018-01-30T01:40:37.177Z,80.20
2018-01-30T01:43:04.817Z,81.60
2018-01-30T01:45:32.432Z,82.70
2018-01-30T01:48:00.036Z,83.40
2018-01-30T01:50:28.437Z,83.90
2018-01-30T01:52:56.037Z,83.90
2018-01-30T01:55:23.641Z,86.40
2018-01-30T01:57:51.281Z,87.60
2018-01-30T02:00:18.881Z,88.30
2018-01-30T02:02:46.481Z,89.40
2018-01-30T02:05:15.035Z,92.30
2018-01-30T02:07:42.637Z,92.10
2018-01-30T02:10:10.245Z,93.00
2018-01-30T02:12:37.888Z,94.20
2018-01-30T02:15:05.503Z,94.60
2018-01-30T02:17:33.107Z,93.60
2018-01-30T02:20:00.753Z,94.00
2018-01-30T02:22:28.357Z,94.30
2018-01-30T02:24:55.955Z,93.70
2018-01-30T02:27:23.597Z,94.40
2018-01-30T02:29:51.199Z,95.20
2018-01-30T02:32:18.806Z,93.50
2018-01-30T02:34:46.529Z,92.20
2018-01-30T02:37:20.024Z,90.50
2018-01-30T02:39:47.657Z,88.30
2018-01-30T02:42:16.022Z,87.60
2018-01-30T02:44:54.805Z,87.30
2018-01-30T02:47:22.416Z,87.10
2018-01-30T02:49:50.017Z,85.50
2018-01-30T02:52:21.525Z,84.30
2018-01-30T02:54:49.129Z,82.90
2018-01-30T02:57:16.729Z,82.60
2018-01-30T02:59:44.368Z,83.10
2018-01-30T03:02:13.366Z,83.00
2018-01-30T03:04:40.973Z,81.30
2018-01-30T03:07:08.609Z,80.50
2018-01-30T03:09:36.214Z,80.70
2018-01-30T03:12:04.385Z,81.20
2018-01-30T03:14:32.004Z,81.10
2018-01-30T03:17:00.373Z,81.90
2018-01-30T03:19:27.973Z,81.90
2018-01-30T03:21:56.384Z,83.20
2018-01-30T03:24:23.981Z,83.10
2018-01-30T03:26:55.125Z,82.30
2018-01-30T03:29:26.531Z,83.00
2018-01-30T03:31:54.134Z,83.80
2018-01-30T03:34:22.497Z,84.10
2018-01-30T03:36:50.136Z,84.00
2018-01-30T03:39:17.745Z,84.00
2018-01-30T03:41:45.353Z,82.50
2018-01-30T03:44:12.993Z,82.60
2018-01-30T03:46:40.593Z,82.10
2018-01-30T03:49:08.952Z,81.70
2018-01-30T03:51:36.590Z,81.70
2018-01-30T03:54:04.197Z,82.60
2018-01-30T03:56:31.800Z,82.50
2018-01-30T03:59:10.620Z,81.90
2018-01-30T04:01:38.239Z,82.50
2018-01-30T04:04:05.845Z,80.90
2018-01-30T04:06:33.607Z,80.60
2018-01-30T04:09:01.205Z,80.50
2018-01-30T04:11:28.809Z,79.50
2018-01-30T04:13:57.218Z,78.90
2018-01-30T04:16:25.756Z,78.90
2018-01-30T04:18:54.071Z,78.60
2018-01-30T04:21:22.492Z,77.60
2018-01-30T04:23:50.095Z,77.60
2018-01-30T04:26:17.701Z,76.60
2018-01-30T04:28:45.342Z,77.50
2018-01-30T04:31:12.954Z,77.40
2018-01-30T04:33:40.578Z,78.50
2018-01-30T04:36:08.216Z,78.60
2018-01-30T04:38:36.663Z,78.90
2018-01-30T04:41:04.273Z,78.90
2018-01-30T04:43:32.681Z,77.90
2018-01-30T04:46:01.046Z,75.40
2018-01-30T04:48:28.654Z,75.40
2018-01-30T04:50:56.298Z,75.00
2018-01-30T04:53:24.676Z,71.70
2018-01-30T04:55:52.285Z,71.00
2018-01-30T04:58:20.692Z,64.70
2018-01-30T05:00:48.305Z,64.70
2018-01-30T05:03:15.915Z,62.50
2018-01-30T05:05:44.326Z,56.20
2018-01-30T05:08:11.924Z,56.20
2018-01-30T05:10:39.529Z,53.70
2018-01-30T05:13:07.172Z,51.30
2018-01-30T05:15:34.776Z,51.80
2018-01-30T05:18:02.382Z,50.30
2018-01-30T05:20:30.789Z,50.10
2018-01-30T05:22:58.494Z,50.10
2018-01-30T05:25:26.099Z,49.70
2018-01-30T05:27:53.738Z,50.30
2018-01-30T05:30:21.342Z,49.40
2018-01-30T05:32:48.940Z,49.40
2018-01-30T05:35:17.355Z,50.50
2018-01-30T05:37:44.965Z,50.50
2018-01-30T05:40:12.581Z,50.80
2018-01-30T05:42:40.980Z,49.50
2018-01-30T05:45:08.576Z,49.60
2018-01-30T05:47:36.177Z,50.60
2018-01-30T05:50:03.821Z,50.60
2018-01-30T05:52:31.417Z,50.10
2018-01-30T05:54:59.018Z,49.30
2018-01-30T05:57:26.657Z,48.70
2018-01-30T05:59:54.262Z,47.60
2018-01-30T06:02:21.864Z,48.10
2018-01-30T06:04:50.264Z,47.70
2018-01-30T06:07:17.863Z,47.60
2018-01-30T06:09:45.465Z,47.50
2018-01-30T06:12:13.106Z,48.10
2018-01-30T06:14:40.798Z,47.60
2018-01-30T06:17:08.407Z,49.50
2018-01-30T06:19:36.043Z,48.80
2018-01-30T06:22:03.653Z,48.00
2018-01-30T06:24:31.253Z,47.80
2018-01-30T06:26:58.893Z,45.00
2018-01-30T06:29:26.497Z,44.40
2018-01-30T06:31:54.870Z,44.80
2018-01-30T06:34:23.268Z,46.20
2018-01-30T06:36:51.714Z,47.30
2018-01-30T06:39:19.309Z,47.30
2018-01-30T06:41:46.949Z,50.00
2018-01-30T06:44:14.556Z,51.70
2018-01-30T06:46:42.156Z,52.80
2018-01-30T06:49:10.910Z,52.00
2018-01-30T06:51:38.552Z,52.10
2018-01-30T06:54:06.161Z,51.60
2018-01-30T06:56:33.825Z,51.70
2018-01-30T06:59:01.440Z,50.10
2018-01-30T07:01:29.061Z,49.40
2018-01-30T07:03:56.702Z,49.10
2018-01-30T07:06:25.074Z,49.30
2018-01-30T07:08:52.680Z,49.30
2018-01-30T07:11:20.324Z,50.00
2018-01-30T07:13:47.924Z,49.20
2018-01-30T07:16:16.292Z,47.10
2018-01-30T07:18:43.937Z,47.10
2018-01-30T07:21:11.540Z,48.20
2018-01-30T07:23:39.149Z,48.80
2018-01-30T07:26:06.795Z,47.60
2018-01-30T07:28:35.161Z,49.20
2018-01-30T07:31:02.780Z,49.20
2018-01-30T07:33:30.424Z,49.60
2018-01-30T07:35:58.037Z,49.10
2018-01-30T07:38:25.640Z,49.10
2018-01-30T07:40:53.313Z,49.30
2018-01-30T07:43:20.912Z,47.70
2018-01-30T07:45:48.513Z,47.50
2018-01-30T07:48:16.912Z,47.30
2018-01-30T07:50:45.276Z,47.40
2018-01-30T07:53:12.877Z,47.50
2018-01-30T07:55:40.517Z,48.20
2018-01-30T07:58:08.121Z,46.20
2018-01-30T08:00:36.484Z,44.30
2018-01-30T08:03:04.130Z,44.30
2018-01-30T08:05:31.803Z,41.80
2018-01-30T08:07:59.411Z,41.60
2018-01-30T08:10:27.053Z,41.30
2018-01-30T08:12:54.661Z,42.20
2018-01-30T08:15:22.270Z,42.10
2018-01-30T08:17:49.904Z,42.10
2018-01-30T08:20:17.500Z,40.30
2018-01-30T08:22:45.865Z,40.30
2018-01-30T08:25:13.511Z,40.30
2018-01-30T08:27:45.279Z,39.80
2018-01-30T08:30:13.524Z,40.50
2018-01-30T08:32:41.905Z,41.80
2018-01-30T08:35:10.272Z,43.00
2018-01-30T08:37:37.929Z,42.20
2018-01-30T08:40:05.536Z,40.80
2018-01-30T08:42:33.151Z,39.90
2018-01-30T08:45:00.780Z,39.70
2018-01-30T08:47:28.377Z,36.80
2018-01-30T08:49:56.755Z,36.10
2018-01-30T08:52:25.157Z,36.30
2018-01-30T08:54:53.538Z,36.40
2018-01-30T08:57:21.141Z,36.40
2018-01-30T08:59:48.779Z,37.40
2018-01-30T09:02:16.389Z,36.50
2018-01-30T09:04:43.989Z,37.70
2018-01-30T09:07:11.616Z,37.90
2018-01-30T09:09:39.984Z,37.70
2018-01-30T09:12:07.602Z,37.70
2018-01-30T09:14:35.247Z,37.30
2018-01-30T09:17:03.616Z,32.70
2018-01-30T09:19:34.219Z,32.70
2018-01-30T09:22:02.133Z,32.70
2018-01-30T09:24:29.736Z,32.80
2018-01-30T09:26:57.345Z,33.40
2018-01-30T09:29:24.992Z,35.90
2018-01-30T09:31:53.356Z,34.70
2018-01-30T09:34:20.967Z,34.70
2018-01-30T09:36:48.605Z,34.40
2018-01-30T09:39:16.208Z,34.80
2018-01-30T09:41:44.647Z,33.40
2018-01-30T09:44:12.284Z,33.40
2018-01-30T09:46:39.896Z,34.60
2018-01-30T09:49:07.494Z,34.00
2018-01-30T09:51:35.135Z,35.30
2018-01-30T09:54:02.750Z,36.80
2018-01-30T09:56:30.357Z,36.50
2018-01-30T09:58:57.998Z,34.10
2018-01-30T10:01:25.600Z,34.20
2018-01-30T10:03:53.205Z,35.80
2018-01-30T10:06:20.845Z,34.60
2018-01-30T10:08:48.560Z,34.60
2018-01-30T10:11:16.156Z,34.70
2018-01-30T10:13:43.797Z,34.40
2018-01-30T10:16:11.396Z,35.30
2018-01-30T10:18:39.005Z,34.80
2018-01-30T10:21:07.413Z,34.80
2018-01-30T10:23:35.764Z,34.80
2018-01-30T10:26:03.377Z,34.30
2018-01-30T10:28:31.009Z,35.20
2018-01-30T10:30:58.636Z,33.10
2018-01-30T10:33:26.336Z,34.10
2018-01-30T10:35:53.973Z,33.90
2018-01-30T10:38:21.572Z,34.90
2018-01-30T10:40:49.261Z,34.00
2018-01-30T10:43:16.892Z,35.20
2018-01-30T10:45:44.503Z,35.40
2018-01-30T10:48:12.155Z,35.20
2018-01-30T10:50:39.801Z,34.00
2018-01-30T10:53:08.188Z,35.40
2018-01-30T10:55:36.566Z,35.20
2018-01-30T10:58:04.265Z,35.10
2018-01-30T11:00:32.646Z,32.10
2018-01-30T11:03:00.292Z,32.10
2018-01-30T11:05:27.954Z,33.90
2018-01-30T11:07:55.548Z,33.60
2018-01-30T11:10:23.208Z,32.40
2018-01-30T11:12:50.842Z,31.40
2018-01-30T11:15:18.445Z,31.10
2018-01-30T11:17:46.067Z,30.30
2018-01-30T11:20:13.713Z,31.30
2018-01-30T11:22:41.312Z,30.20
2018-01-30T11:25:08.951Z,30.90
2018-01-30T11:27:36.585Z,29.40
2018-01-30T11:30:04.180Z,29.00
2018-01-30T11:32:31.869Z,27.80
2018-01-30T11:34:59.505Z,28.80
2018-01-30T11:37:27.868Z,26.20
2018-01-30T11:39:55.483Z,26.30
2018-01-30T11:42:23.121Z,25.90
2018-01-30T11:44:50.729Z,27.10
2018-01-30T11:47:18.335Z,28.50
2018-01-30T11:49:45.977Z,27.50
2018-01-30T11:52:13.572Z,29.00
2018-01-30T11:54:41.209Z,30.10
2018-01-30T11:57:09.612Z,28.90
2018-01-30T11:59:37.224Z,28.90
2018-01-30T12:02:04.820Z,28.80
2018-01-30T12:04:32.569Z,28.00
2018-01-30T12:07:00.165Z,28.70
2018-01-30T12:09:27.774Z,28.70
2018-01-30T12:11:56.176Z,27.90
2018-01-30T12:14:23.781Z,27.90
2018-01-30T12:16:51.453Z,26.70
2018-01-30T12:19:19.097Z,28.10
2018-01-30T12:21:46.720Z,27.70
2018-01-30T12:24:14.324Z,26.70
2018-01-30T12:26:42.741Z,24.80
2018-01-30T12:29:10.336Z,24.80
2018-01-30T12:31:37.942Z,24.90
2018-01-30T12:34:05.587Z,25.10
2018-01-30T12:36:33.196Z,25.20
2018-01-30T12:39:00.797Z,26.00
2018-01-30T12:41:28.441Z,24.60
2018-01-30T12:43:56.041Z,25.10
2018-01-30T12:46:24.413Z,26.10
2018-01-30T12:48:52.049Z,26.10
2018-01-30T12:51:19.653Z,27.80
2018-01-30T12:53:47.265Z,26.30
2018-01-30T12:56:14.904Z,26.70
2018-01-30T12:58:42.544Z,26.80
2018-01-30T13:01:10.149Z,27.60
2018-01-30T13:03:37.787Z,27.90
2018-01-30T13:06:05.391Z,26.70
2018-01-30T13:08:33.001Z,25.70
2018-01-30T13:11:00.632Z,24.30
2018-01-30T13:13:28.286Z,25.50
2018-01-30T13:15:55.960Z,25.60
2018-01-30T13:18:23.608Z,23.70
2018-01-30T13:20:51.310Z,21.70
2018-01-30T13:23:18.913Z,21.10
2018-01-30T13:25:46.785Z,20.30
2018-01-30T13:28:14.390Z,19.10
2018-01-30T13:30:43.037Z,19.90
2018-01-30T13:33:10.685Z,19.80
2018-01-30T13:35:38.298Z,18.90
2018-01-30T13:38:05.912Z,18.10
2018-01-30T13:40:34.358Z,18.20
2018-01-30T13:43:01.958Z,18.30
2018-01-30T13:45:29.558Z,16.80
2018-01-30T13:47:57.197Z,18.10
2018-01-30T13:50:24.808Z,18.60
2018-01-30T13:52:53.186Z,18.50
2018-01-30T13:55:21.590Z,20.20
2018-01-30T13:57:50.717Z,19.80
2018-01-30T14:00:18.326Z,19.80
2018-01-30T14:02:45.978Z,19.80
2018-01-30T14:05:13.580Z,20.60
2018-01-30T14:07:41.177Z,19.90
2018-01-30T14:10:09.589Z,23.40
2018-01-30T14:12:37.957Z,22.80
2018-01-30T14:15:05.562Z,22.80
2018-01-30T14:17:33.201Z,24.30
2018-01-30T14:20:00.843Z,23.90
2018-01-30T14:22:28.452Z,24.20
2018-01-30T14:24:56.864Z,25.20
2018-01-30T14:27:25.311Z,26.30
2018-01-30T14:29:52.916Z,26.30
2018-01-30T14:32:20.559Z,25.40
2018-01-30T14:34:48.157Z,25.00
2018-01-30T14:37:15.752Z,26.50
2018-01-30T14:39:44.152Z,27.40
2018-01-30T14:42:11.774Z,27.30
2018-01-30T14:44:39.444Z,28.70
2018-01-30T14:47:07.114Z,29.50
2018-01-30T14:49:34.723Z,28.00
2018-01-30T14:52:02.359Z,28.30
2018-01-30T14:54:29.998Z,29.10
2018-01-30T14:56:57.609Z,27.60
2018-01-30T14:59:25.209Z,28.90
2018-01-30T15:01:52.849Z,29.20
2018-01-30T15:04:20.449Z,29.30
2018-01-30T15:06:48.052Z,29.50
2018-01-30T15:09:16.461Z,29.30
2018-01-30T15:11:44.061Z,29.20
2018-01-30T15:14:11.660Z,30.40
2018-01-30T15:16:39.299Z,29.40
2018-01-30T15:19:06.910Z,29.80
2018-01-30T15:21:34.517Z,28.80
2018-01-30T15:24:02.948Z,29.50
2018-01-30T15:26:30.549Z,29.40
2018-01-30T15:28:58.148Z,28.40
2018-01-30T15:31:26.554Z,29.40
2018-01-30T15:33:54.161Z,29.40
2018-01-30T15:36:21.760Z,28.20
2018-01-30T15:38:49.404Z,28.10
2018-01-30T15:41:17.012Z,29.30
2018-01-30T15:43:44.914Z,28.90
2018-01-30T15:46:13.345Z,28.80
2018-01-30T15:48:41.864Z,28.80
2018-01-30T15:51:10.173Z,28.40
2018-01-30T15:53:38.605Z,28.60
2018-01-30T15:56:06.238Z,28.50
2018-01-30T15:58:33.865Z,29.70
2018-01-30T16:01:01.509Z,28.90
2018-01-30T16:03:30.124Z,30.10
2018-01-30T16:05:57.743Z,30.10
2018-01-30T16:08:25.498Z,30.10
2018-01-30T16:10:53.108Z,28.70
2018-01-30T16:13:20.717Z,28.80
2018-01-30T16:15:48.356Z,30.00
2018-01-30T16:18:16.010Z,30.10
2018-01-30T16:20:43.923Z,29.80
2018-01-30T16:23:12.688Z,31.00
2018-01-30T16:25:40.308Z,30.90
2018-01-30T16:28:08.736Z,31.50
2018-01-30T16:30:36.377Z,31.50
2018-01-30T16:33:03.992Z,31.90
2018-01-30T16:35:31.650Z,32.90
2018-01-30T16:37:59.372Z,33.20
2018-01-30T16:40:27.000Z,32.60
2018-01-30T16:42:54.605Z,33.00
2018-01-30T16:45:22.317Z,33.10
2018-01-30T16:47:49.938Z,33.40
2018-01-30T16:50:17.557Z,33.10
2018-01-30T16:52:45.213Z,33.60
2018-01-30T16:55:13.193Z,33.70
2018-01-30T16:57:40.816Z,33.60
2018-01-30T17:00:08.478Z,33.80
2018-01-30T17:02:36.859Z,35.80
2018-01-30T17:05:04.569Z,35.60
2018-01-30T17:07:32.225Z,35.80
2018-01-30T17:10:00.605Z,37.00
2018-01-30T17:12:28.982Z,38.10
2018-01-30T17:14:56.636Z,38.10
2018-01-30T17:17:24.304Z,37.90
2018-01-30T17:19:51.913Z,37.70
2018-01-30T17:22:19.573Z,38.00
2018-01-30T17:24:47.315Z,38.40
2018-01-30T17:27:15.006Z,38.30
2018-01-30T17:29:42.657Z,38.60
2018-01-30T17:32:10.278Z,38.50
2018-01-30T17:34:38.026Z,38.80
2018-01-30T17:37:05.693Z,38.50
2018-01-30T17:39:33.307Z,39.20
2018-01-30T17:42:01.316Z,38.80
2018-01-30T17:44:29.752Z,40.00
2018-01-30T17:46:57.353Z,39.90
2018-01-30T17:49:24.953Z,39.60
2018-01-30T17:51:53.356Z,41.70
2018-01-30T17:54:22.733Z,42.20
2018-01-30T17:56:50.390Z,42.10
2018-01-30T17:59:18.886Z,41.30
2018-01-30T18:01:46.491Z,42.50
2018-01-30T18:04:14.101Z,43.60
2018-01-30T18:06:42.216Z,43.10
2018-01-30T18:09:09.829Z,45.20
2018-01-30T18:11:37.433Z,45.80
2018-01-30T18:14:05.064Z,46.50
2018-01-30T18:16:32.676Z,47.60
2018-01-30T18:19:00.284Z,47.70
2018-01-30T18:21:27.989Z,48.70
2018-01-30T18:23:55.574Z,49.50
2018-01-30T18:26:24.928Z,50.30
2018-01-30T18:28:52.594Z,50.30
2018-01-30T18:31:20.196Z,50.30
2018-01-30T18:33:47.788Z,51.10
2018-01-30T18:36:15.435Z,52.50
2018-01-30T18:38:43.045Z,52.70
2018-01-30T18:41:10.653Z,53.60
2018-01-30T18:43:38.306Z,53.70
2018-01-30T18:46:06.681Z,55.70
2018-01-30T18:48:34.334Z,55.10
2018-01-30T18:51:01.973Z,56.40
2018-01-30T18:53:29.580Z,57.90
2018-01-30T18:55:57.246Z,58.80
2018-01-30T18:58:24.886Z,60.00
2018-01-30T19:00:52.484Z,61.50
2018-01-30T19:03:20.094Z,60.40
2018-01-30T19:05:47.785Z,60.40
2018-01-30T19:08:15.405Z,62.50
2018-01-30T19:10:43.016Z,61.10
2018-01-30T19:13:10.844Z,60.50
2018-01-30T19:15:38.461Z,60.70
2018-01-30T19:18:06.073Z,59.80
2018-01-30T19:20:34.481Z,61.70
2018-01-30T19:23:02.085Z,61.70
2018-01-30T19:25:29.697Z,62.00
2018-01-30T19:27:57.345Z,63.40
2018-01-30T19:30:25.205Z,64.60
2018-01-30T19:32:52.807Z,65.30
2018-01-30T19:35:20.444Z,65.70
2018-01-30T19:37:48.040Z,66.10
2018-01-30T19:40:15.650Z,66.00
2018-01-30T19:42:43.289Z,64.90
2018-01-30T19:45:10.892Z,64.70
2018-01-30T19:47:38.488Z,64.80
2018-01-30T19:50:06.136Z,65.30
2018-01-30T19:52:33.792Z,65.40
2018-01-30T19:55:01.450Z,65.80
2018-01-30T19:57:29.090Z,66.40
2018-01-30T19:59:56.695Z,66.00
2018-01-30T20:02:24.305Z,66.50
2018-01-30T20:04:51.957Z,68.80
2018-01-30T20:07:19.580Z,69.40
2018-01-30T20:09:47.217Z,69.50
2018-01-30T20:12:14.853Z,70.40
2018-01-30T20:14:42.461Z,72.40
2018-01-30T20:17:10.078Z,72.20
2018-01-30T20:19:37.734Z,72.20
2018-01-30T20:22:06.109Z,70.80
2018-01-30T20:24:33.721Z,70.70
2018-01-30T20:27:02.001Z,70.80
2018-01-30T20:29:31.323Z,72.60
2018-01-30T20:31:58.929Z,71.80
2018-01-30T20:34:28.157Z,74.30
2018-01-30T20:36:55.757Z,75.10
2018-01-30T20:39:23.504Z,73.50
2018-01-30T20:41:51.681Z,74.80
2018-01-30T20:44:19.782Z,75.10
2018-01-30T20:46:47.475Z,75.60
2018-01-30T20:49:15.116Z,73.70
2018-01-30T20:51:42.732Z,75.30
2018-01-30T20:54:11.096Z,76.30
2018-01-30T20:56:38.732Z,76.30
2018-01-30T20:59:06.329Z,76.80
2018-01-30T21:01:33.989Z,77.00
2018-01-30T21:04:01.641Z,76.70
2018-01-30T21:06:30.277Z,77.40
2018-01-30T21:08:57.876Z,79.00
2018-01-30T21:11:25.693Z,80.50
2018-01-30T21:13:54.247Z,81.40
2018-01-30T21:16:22.004Z,80.60
2018-01-30T21:18:50.593Z,81.10
2018-01-30T21:21:20.488Z,82.00
2018-01-30T21:23:48.088Z,81.50
2018-01-30T21:26:17.286Z,82.40
2018-01-30T21:28:45.493Z,83.50
2018-01-30T21:31:14.536Z,81.20
2018-01-30T21:33:43.710Z,81.10
2018-01-30T21:36:12.103Z,81.20
2018-01-30T21:38:50.369Z,81.30
2018-01-30T21:41:19.912Z,82.00
2018-01-30T21:43:47.522Z,81.90
2018-01-30T21:46:15.164Z,84.30
2018-01-30T21:48:44.013Z,85.60
2018-01-30T21:51:11.621Z,87.20
2018-01-30T21:53:54.014Z,85.80
2018-01-30T21:56:23.269Z,86.80
2018-01-30T21:58:51.837Z,86.80
2018-01-30T22:01:20.572Z,85.90
2018-01-30T22:03:48.661Z,85.90
2018-01-30T22:06:16.309Z,87.10
2018-01-30T22:08:45.293Z,88.00
2018-01-30T22:11:16.266Z,87.50
2018-01-30T22:13:44.311Z,87.30
2018-01-30T22:16:25.146Z,86.70
2018-01-30T22:18:52.932Z,86.80
2018-01-30T22:21:20.833Z,86.30
2018-01-30T22:23:50.129Z,85.10
2018-01-30T22:26:17.752Z,83.60
2018-01-30T22:28:45.424Z,82.50
2018-01-30T22:31:13.019Z,82.50
2018-01-30T22:33:40.623Z,81.30
2018-01-30T22:36:08.738Z,81.80
2018-01-30T22:38:37.025Z,79.10
2018-01-30T22:41:05.271Z,76.70
2018-01-30T22:43:33.638Z,72.70
2018-01-30T22:46:01.332Z,72.70
